sensor_id;sensor_type;location;lat;lon;timestamp;pressure;altitude;pressure_sealevel;temperature;humidity
13705;BME280;6924;52.122;9.952;2023-04-19T00:01:16;101790.66;;;8.31;72.44
13705;BME280;6924;52.122;9.952;2023-04-19T00:03:44;101785.44;;;8.45;71.86
13705;BME280;6924;52.122;9.952;2023-04-19T00:06:10;101784.81;;;8.38;71.53
13705;BME280;6924;52.122;9.952;2023-04-19T00:08:39;101776.63;;;8.36;71.48
13705;BME280;6924;52.122;9.952;2023-04-19T00:11:06;101776.53;;;8.26;70.23
13705;BME280;6924;52.122;9.952;2023-04-19T00:13:32;101772.88;;;8.25;69.20
13705;BME280;6924;52.122;9.952;2023-04-19T00:15:59;101782.47;;;8.30;68.92
13705;BME280;6924;52.122;9.952;2023-04-19T00:18:26;101772.75;;;8.10;68.35
13705;BME280;6924;52.122;9.952;2023-04-19T00:20:53;101774.75;;;8.15;68.13
13705;BME280;6924;52.122;9.952;2023-04-19T00:23:20;101776.41;;;8.11;67.58
13705;BME280;6924;52.122;9.952;2023-04-19T00:25:47;101777.16;;;8.01;65.97
13705;BME280;6924;52.122;9.952;2023-04-19T00:28:14;101776.47;;;7.89;64.44
13705;BME280;6924;52.122;9.952;2023-04-19T00:30:40;101775.06;;;7.86;63.83
13705;BME280;6924;52.122;9.952;2023-04-19T00:33:07;101776.66;;;7.77;62.30
13705;BME280;6924;52.122;9.952;2023-04-19T00:35:38;101776.03;;;7.70;61.18
13705;BME280;6924;52.122;9.952;2023-04-19T00:38:05;101769.22;;;7.65;58.79
13705;BME280;6924;52.122;9.952;2023-04-19T00:40:31;101779.66;;;7.65;58.20
13705;BME280;6924;52.122;9.952;2023-04-19T00:42:58;101780.63;;;7.54;56.54
13705;BME280;6924;52.122;9.952;2023-04-19T00:45:24;101782.13;;;7.61;54.66
13705;BME280;6924;52.122;9.952;2023-04-19T00:47:51;101787.72;;;7.56;53.74
13705;BME280;6924;52.122;9.952;2023-04-19T00:50:18;101783.22;;;7.60;53.11
13705;BME280;6924;52.122;9.952;2023-04-19T00:52:47;101792.59;;;7.39;51.79
13705;BME280;6924;52.122;9.952;2023-04-19T00:55:13;101795.41;;;7.39;53.39
13705;BME280;6924;52.122;9.952;2023-04-19T00:57:40;101792.50;;;7.34;52.96
13705;BME280;6924;52.122;9.952;2023-04-19T01:00:07;101800.97;;;7.34;54.87
13705;BME280;6924;52.122;9.952;2023-04-19T01:02:34;101793.00;;;7.26;52.86
13705;BME280;6924;52.122;9.952;2023-04-19T01:05:01;101791.47;;;7.18;54.97
13705;BME280;6924;52.122;9.952;2023-04-19T01:07:27;101796.72;;;7.09;55.24
13705;BME280;6924;52.122;9.952;2023-04-19T01:09:55;101797.56;;;7.10;54.58
13705;BME280;6924;52.122;9.952;2023-04-19T01:12:21;101800.56;;;7.03;55.70
13705;BME280;6924;52.122;9.952;2023-04-19T01:14:49;101803.75;;;6.90;57.05
13705;BME280;6924;52.122;9.952;2023-04-19T01:17:16;101799.75;;;6.86;57.58
13705;BME280;6924;52.122;9.952;2023-04-19T01:19:43;101803.53;;;6.74;58.15
13705;BME280;6924;52.122;9.952;2023-04-19T01:22:15;101802.69;;;6.74;57.81
13705;BME280;6924;52.122;9.952;2023-04-19T01:24:42;101801.44;;;6.81;58.42
13705;BME280;6924;52.122;9.952;2023-04-19T01:27:08;101806.75;;;6.83;58.40
13705;BME280;6924;52.122;9.952;2023-04-19T01:29:35;101799.28;;;6.72;58.90
13705;BME280;6924;52.122;9.952;2023-04-19T01:32:02;101799.22;;;6.67;59.71
13705;BME280;6924;52.122;9.952;2023-04-19T01:34:28;101798.16;;;6.34;60.83
13705;BME280;6924;52.122;9.952;2023-04-19T01:36:54;101806.25;;;6.30;62.28
13705;BME280;6924;52.122;9.952;2023-04-19T01:39:24;101808.75;;;6.27;60.84
13705;BME280;6924;52.122;9.952;2023-04-19T01:41:51;101804.66;;;6.17;61.67
13705;BME280;6924;52.122;9.952;2023-04-19T01:44:17;101803.28;;;6.20;61.91
13705;BME280;6924;52.122;9.952;2023-04-19T01:46:44;101793.41;;;6.17;62.51
13705;BME280;6924;52.122;9.952;2023-04-19T01:49:10;101802.34;;;6.14;62.75
13705;BME280;6924;52.122;9.952;2023-04-19T01:51:37;101807.81;;;6.04;63.45
13705;BME280;6924;52.122;9.952;2023-04-19T01:54:04;101803.09;;;6.10;64.24
13705;BME280;6924;52.122;9.952;2023-04-19T01:56:31;101805.47;;;6.01;64.72
13705;BME280;6924;52.122;9.952;2023-04-19T01:58:58;101807.38;;;5.95;64.15
13705;BME280;6924;52.122;9.952;2023-04-19T02:01:24;101808.31;;;5.72;65.33
13705;BME280;6924;52.122;9.952;2023-04-19T02:03:50;101800.13;;;5.71;64.79
13705;BME280;6924;52.122;9.952;2023-04-19T02:06:17;101806.94;;;5.58;66.17
13705;BME280;6924;52.122;9.952;2023-04-19T02:08:43;101796.69;;;5.52;66.41
13705;BME280;6924;52.122;9.952;2023-04-19T02:11:11;101802.78;;;5.49;66.18
13705;BME280;6924;52.122;9.952;2023-04-19T02:13:40;101804.22;;;5.34;66.32
13705;BME280;6924;52.122;9.952;2023-04-19T02:16:07;101804.81;;;5.36;66.51
13705;BME280;6924;52.122;9.952;2023-04-19T02:18:33;101807.09;;;5.39;67.57
13705;BME280;6924;52.122;9.952;2023-04-19T02:21:03;101804.41;;;5.45;68.46
13705;BME280;6924;52.122;9.952;2023-04-19T02:23:29;101800.44;;;5.57;67.90
13705;BME280;6924;52.122;9.952;2023-04-19T02:25:56;101796.03;;;5.62;67.33
13705;BME280;6924;52.122;9.952;2023-04-19T02:28:22;101798.69;;;5.68;67.74
13705;BME280;6924;52.122;9.952;2023-04-19T02:30:50;101801.00;;;5.71;67.89
13705;BME280;6924;52.122;9.952;2023-04-19T02:33:16;101799.28;;;5.70;68.08
13705;BME280;6924;52.122;9.952;2023-04-19T02:35:43;101803.19;;;5.69;67.16
13705;BME280;6924;52.122;9.952;2023-04-19T02:38:09;101799.44;;;5.64;66.93
13705;BME280;6924;52.122;9.952;2023-04-19T02:40:35;101796.72;;;5.69;67.38
13705;BME280;6924;52.122;9.952;2023-04-19T02:43:02;101794.94;;;5.63;67.64
13705;BME280;6924;52.122;9.952;2023-04-19T02:45:29;101792.38;;;5.61;67.45
13705;BME280;6924;52.122;9.952;2023-04-19T02:47:57;101800.09;;;5.54;67.76
13705;BME280;6924;52.122;9.952;2023-04-19T02:50:24;101805.00;;;5.47;68.77
13705;BME280;6924;52.122;9.952;2023-04-19T02:52:51;101809.16;;;5.44;68.46
13705;BME280;6924;52.122;9.952;2023-04-19T02:55:17;101795.28;;;5.37;69.65
13705;BME280;6924;52.122;9.952;2023-04-19T02:57:44;101797.16;;;5.32;69.79
13705;BME280;6924;52.122;9.952;2023-04-19T03:00:11;101801.19;;;5.24;70.27
13705;BME280;6924;52.122;9.952;2023-04-19T03:02:38;101798.28;;;5.19;70.34
13705;BME280;6924;52.122;9.952;2023-04-19T03:05:06;101802.44;;;5.16;70.67
13705;BME280;6924;52.122;9.952;2023-04-19T03:07:33;101804.06;;;5.01;70.46
13705;BME280;6924;52.122;9.952;2023-04-19T03:09:59;101800.47;;;4.76;72.67
13705;BME280;6924;52.122;9.952;2023-04-19T03:12:26;101793.03;;;4.70;71.97
13705;BME280;6924;52.122;9.952;2023-04-19T03:14:52;101802.78;;;4.68;72.75
13705;BME280;6924;52.122;9.952;2023-04-19T03:17:19;101803.03;;;4.66;73.19
13705;BME280;6924;52.122;9.952;2023-04-19T03:19:45;101803.88;;;4.79;73.10
13705;BME280;6924;52.122;9.952;2023-04-19T03:22:13;101806.41;;;4.80;73.51
13705;BME280;6924;52.122;9.952;2023-04-19T03:24:39;101799.59;;;4.88;73.00
13705;BME280;6924;52.122;9.952;2023-04-19T03:27:06;101803.59;;;4.80;72.60
13705;BME280;6924;52.122;9.952;2023-04-19T03:29:32;101795.81;;;4.82;73.02
13705;BME280;6924;52.122;9.952;2023-04-19T03:31:59;101795.34;;;4.85;73.09
13705;BME280;6924;52.122;9.952;2023-04-19T03:34:25;101797.41;;;4.90;73.42
13705;BME280;6924;52.122;9.952;2023-04-19T03:36:51;101796.03;;;4.92;73.46
13705;BME280;6924;52.122;9.952;2023-04-19T03:39:19;101795.94;;;4.75;73.34
13705;BME280;6924;52.122;9.952;2023-04-19T03:41:45;101794.59;;;4.78;73.35
13705;BME280;6924;52.122;9.952;2023-04-19T03:44:12;101794.59;;;4.78;73.40
13705;BME280;6924;52.122;9.952;2023-04-19T03:46:38;101795.19;;;4.80;72.77
13705;BME280;6924;52.122;9.952;2023-04-19T03:49:05;101782.09;;;4.57;72.75
13705;BME280;6924;52.122;9.952;2023-04-19T03:51:31;101786.34;;;4.60;73.07
13705;BME280;6924;52.122;9.952;2023-04-19T03:53:57;101779.38;;;4.62;73.69
13705;BME280;6924;52.122;9.952;2023-04-19T03:56:25;101787.78;;;4.62;73.75
13705;BME280;6924;52.122;9.952;2023-04-19T03:58:51;101792.41;;;4.68;73.79
13705;BME280;6924;52.122;9.952;2023-04-19T04:01:18;101784.63;;;4.70;74.08
13705;BME280;6924;52.122;9.952;2023-04-19T04:03:44;101792.78;;;4.72;74.18
13705;BME280;6924;52.122;9.952;2023-04-19T04:06:11;101784.84;;;4.69;74.51
13705;BME280;6924;52.122;9.952;2023-04-19T04:08:37;101787.66;;;4.69;74.81
13705;BME280;6924;52.122;9.952;2023-04-19T04:11:04;101789.00;;;4.66;75.54
13705;BME280;6924;52.122;9.952;2023-04-19T04:13:31;101787.06;;;4.67;75.95
13705;BME280;6924;52.122;9.952;2023-04-19T04:15:58;101788.16;;;4.66;75.47
13705;BME280;6924;52.122;9.952;2023-04-19T04:18:24;101781.09;;;4.63;75.48
13705;BME280;6924;52.122;9.952;2023-04-19T04:20:52;101788.41;;;4.64;75.29
13705;BME280;6924;52.122;9.952;2023-04-19T04:23:19;101784.75;;;4.64;76.36
13705;BME280;6924;52.122;9.952;2023-04-19T04:25:46;101785.84;;;4.63;76.25
13705;BME280;6924;52.122;9.952;2023-04-19T04:28:12;101790.13;;;4.53;75.40
13705;BME280;6924;52.122;9.952;2023-04-19T04:30:40;101785.34;;;4.54;76.42
13705;BME280;6924;52.122;9.952;2023-04-19T04:33:06;101789.28;;;4.53;76.01
13705;BME280;6924;52.122;9.952;2023-04-19T04:35:36;101785.63;;;4.52;76.80
13705;BME280;6924;52.122;9.952;2023-04-19T04:38:02;101784.50;;;4.53;77.35
13705;BME280;6924;52.122;9.952;2023-04-19T04:40:29;101785.97;;;4.56;77.84
13705;BME280;6924;52.122;9.952;2023-04-19T04:42:56;101791.34;;;4.58;77.12
13705;BME280;6924;52.122;9.952;2023-04-19T04:45:25;101799.25;;;4.61;77.38
13705;BME280;6924;52.122;9.952;2023-04-19T04:47:54;101793.41;;;4.62;77.60
13705;BME280;6924;52.122;9.952;2023-04-19T04:50:21;101793.41;;;4.62;77.71
13705;BME280;6924;52.122;9.952;2023-04-19T04:52:47;101796.81;;;4.64;77.54
13705;BME280;6924;52.122;9.952;2023-04-19T04:55:13;101797.19;;;4.68;78.26
13705;BME280;6924;52.122;9.952;2023-04-19T04:57:40;101793.50;;;4.67;77.84
13705;BME280;6924;52.122;9.952;2023-04-19T05:00:08;101796.09;;;4.33;76.55
13705;BME280;6924;52.122;9.952;2023-04-19T05:02:36;101786.59;;;4.34;77.36
13705;BME280;6924;52.122;9.952;2023-04-19T05:05:05;101788.78;;;4.21;76.89
13705;BME280;6924;52.122;9.952;2023-04-19T05:07:31;101789.16;;;4.12;77.68
13705;BME280;6924;52.122;9.952;2023-04-19T05:09:58;101795.59;;;4.25;78.00
13705;BME280;6924;52.122;9.952;2023-04-19T05:12:24;101796.94;;;4.46;78.35
13705;BME280;6924;52.122;9.952;2023-04-19T05:14:50;101797.41;;;4.43;77.95
13705;BME280;6924;52.122;9.952;2023-04-19T05:17:17;101791.34;;;4.58;77.24
13705;BME280;6924;52.122;9.952;2023-04-19T05:19:43;101793.28;;;4.69;77.24
13705;BME280;6924;52.122;9.952;2023-04-19T05:22:11;101796.41;;;4.84;77.80
13705;BME280;6924;52.122;9.952;2023-04-19T05:24:38;101796.19;;;4.74;76.82
13705;BME280;6924;52.122;9.952;2023-04-19T05:27:05;101794.72;;;4.71;76.55
13705;BME280;6924;52.122;9.952;2023-04-19T05:29:31;101793.28;;;4.69;77.38
13705;BME280;6924;52.122;9.952;2023-04-19T05:31:58;101793.59;;;4.84;78.01
13705;BME280;6924;52.122;9.952;2023-04-19T05:34:24;101802.25;;;4.94;77.38
13705;BME280;6924;52.122;9.952;2023-04-19T05:36:51;101801.38;;;5.06;77.04
13705;BME280;6924;52.122;9.952;2023-04-19T05:39:18;101794.94;;;4.93;75.95
13705;BME280;6924;52.122;9.952;2023-04-19T05:41:45;101794.91;;;5.05;76.31
13705;BME280;6924;52.122;9.952;2023-04-19T05:44:11;101800.16;;;5.02;77.77
13705;BME280;6924;52.122;9.952;2023-04-19T05:46:37;101791.38;;;4.98;77.94
13705;BME280;6924;52.122;9.952;2023-04-19T05:49:04;101788.56;;;4.98;77.92
13705;BME280;6924;52.122;9.952;2023-04-19T05:51:30;101781.22;;;5.09;78.85
13705;BME280;6924;52.122;9.952;2023-04-19T05:53:57;101791.31;;;5.22;76.99
13705;BME280;6924;52.122;9.952;2023-04-19T05:56:26;101780.91;;;5.34;78.29
13705;BME280;6924;52.122;9.952;2023-04-19T05:58:52;101791.25;;;5.45;76.00
13705;BME280;6924;52.122;9.952;2023-04-19T06:01:20;101780.09;;;5.50;76.32
13705;BME280;6924;52.122;9.952;2023-04-19T06:03:46;101781.53;;;5.53;75.97
13705;BME280;6924;52.122;9.952;2023-04-19T06:06:17;101782.59;;;5.64;75.18
13705;BME280;6924;52.122;9.952;2023-04-19T06:08:43;101783.97;;;5.61;75.55
13705;BME280;6924;52.122;9.952;2023-04-19T06:11:09;101784.91;;;5.67;74.31
13705;BME280;6924;52.122;9.952;2023-04-19T06:13:37;101778.78;;;5.70;74.73
13705;BME280;6924;52.122;9.952;2023-04-19T06:16:04;101774.81;;;5.83;73.26
13705;BME280;6924;52.122;9.952;2023-04-19T06:18:32;101776.25;;;5.85;73.71
13705;BME280;6924;52.122;9.952;2023-04-19T06:20:58;101770.47;;;5.92;73.47
13705;BME280;6924;52.122;9.952;2023-04-19T06:23:24;101767.00;;;6.02;73.88
13705;BME280;6924;52.122;9.952;2023-04-19T06:25:51;101774.78;;;6.11;74.11
13705;BME280;6924;52.122;9.952;2023-04-19T06:28:18;101776.56;;;6.17;72.26
13705;BME280;6924;52.122;9.952;2023-04-19T06:30:45;101765.22;;;6.12;72.19
13705;BME280;6924;52.122;9.952;2023-04-19T06:33:13;101775.19;;;6.03;72.25
13705;BME280;6924;52.122;9.952;2023-04-19T06:35:39;101768.72;;;6.03;72.14
13705;BME280;6924;52.122;9.952;2023-04-19T06:38:06;101760.72;;;6.11;72.50
13705;BME280;6924;52.122;9.952;2023-04-19T06:40:32;101752.25;;;6.28;72.74
13705;BME280;6924;52.122;9.952;2023-04-19T06:42:59;101761.63;;;6.34;72.21
13705;BME280;6924;52.122;9.952;2023-04-19T06:45:25;101769.22;;;6.33;72.17
13705;BME280;6924;52.122;9.952;2023-04-19T06:47:53;101760.69;;;6.45;71.75
13705;BME280;6924;52.122;9.952;2023-04-19T06:50:20;101771.63;;;6.63;71.65
13705;BME280;6924;52.122;9.952;2023-04-19T06:52:46;101771.97;;;6.67;70.41
13705;BME280;6924;52.122;9.952;2023-04-19T06:55:13;101767.19;;;6.68;69.34
13705;BME280;6924;52.122;9.952;2023-04-19T06:57:39;101768.19;;;6.78;69.69
13705;BME280;6924;52.122;9.952;2023-04-19T07:00:07;101760.09;;;6.82;68.36
13705;BME280;6924;52.122;9.952;2023-04-19T07:02:34;101754.13;;;6.78;68.32
13705;BME280;6924;52.122;9.952;2023-04-19T07:05:02;101751.72;;;6.87;68.56
13705;BME280;6924;52.122;9.952;2023-04-19T07:07:28;101761.66;;;6.95;68.32
13705;BME280;6924;52.122;9.952;2023-04-19T07:09:55;101748.25;;;7.02;68.82
13705;BME280;6924;52.122;9.952;2023-04-19T07:12:21;101741.97;;;7.17;67.24
13705;BME280;6924;52.122;9.952;2023-04-19T07:14:47;101737.59;;;7.31;68.03
13705;BME280;6924;52.122;9.952;2023-04-19T07:17:14;101744.41;;;7.35;64.76
13705;BME280;6924;52.122;9.952;2023-04-19T07:19:46;101737.59;;;7.31;64.58
13705;BME280;6924;52.122;9.952;2023-04-19T07:22:13;101728.44;;;7.41;65.83
13705;BME280;6924;52.122;9.952;2023-04-19T07:24:40;101733.31;;;7.51;64.55
13705;BME280;6924;52.122;9.952;2023-04-19T07:27:08;101733.31;;;7.51;62.88
13705;BME280;6924;52.122;9.952;2023-04-19T07:29:35;101730.91;;;7.64;64.55
13705;BME280;6924;52.122;9.952;2023-04-19T07:32:02;101730.81;;;7.86;65.49
13705;BME280;6924;52.122;9.952;2023-04-19T07:34:28;101732.94;;;8.01;63.45
13705;BME280;6924;52.122;9.952;2023-04-19T07:36:55;101726.25;;;8.13;63.52
13705;BME280;6924;52.122;9.952;2023-04-19T07:39:23;101734.75;;;8.18;61.44
13705;BME280;6924;52.122;9.952;2023-04-19T07:41:49;101735.97;;;8.32;59.83
13705;BME280;6924;52.122;9.952;2023-04-19T07:44:15;101731.69;;;8.24;60.28
13705;BME280;6924;52.122;9.952;2023-04-19T07:46:42;101724.94;;;8.25;59.80
13705;BME280;6924;52.122;9.952;2023-04-19T07:49:09;101718.75;;;8.28;59.78
13705;BME280;6924;52.122;9.952;2023-04-19T07:51:35;101722.00;;;8.42;61.48
13705;BME280;6924;52.122;9.952;2023-04-19T07:54:02;101721.78;;;8.54;61.93
13705;BME280;6924;52.122;9.952;2023-04-19T07:56:30;101717.81;;;8.55;60.44
13705;BME280;6924;52.122;9.952;2023-04-19T07:58:56;101708.91;;;8.74;59.89
13705;BME280;6924;52.122;9.952;2023-04-19T08:01:22;101728.09;;;8.82;61.46
13705;BME280;6924;52.122;9.952;2023-04-19T08:03:49;101711.25;;;8.92;60.00
13705;BME280;6924;52.122;9.952;2023-04-19T08:06:15;101716.63;;;8.99;58.36
13705;BME280;6924;52.122;9.952;2023-04-19T08:08:42;101699.63;;;8.83;55.75
13705;BME280;6924;52.122;9.952;2023-04-19T08:11:09;101704.19;;;8.95;56.42
13705;BME280;6924;52.122;9.952;2023-04-19T08:13:37;101696.66;;;9.16;55.85
13705;BME280;6924;52.122;9.952;2023-04-19T08:16:03;101695.25;;;9.23;54.47
13705;BME280;6924;52.122;9.952;2023-04-19T08:18:30;101701.19;;;9.32;54.62
13705;BME280;6924;52.122;9.952;2023-04-19T08:20:56;101704.59;;;9.34;53.65
13705;BME280;6924;52.122;9.952;2023-04-19T08:23:23;101701.75;;;9.29;52.37
13705;BME280;6924;52.122;9.952;2023-04-19T08:25:50;101704.63;;;9.44;52.17
13705;BME280;6924;52.122;9.952;2023-04-19T08:28:16;101698.41;;;9.37;52.85
13705;BME280;6924;52.122;9.952;2023-04-19T08:30:44;101693.91;;;9.62;48.74
13705;BME280;6924;52.122;9.952;2023-04-19T08:33:11;101693.91;;;9.67;47.72
13705;BME280;6924;52.122;9.952;2023-04-19T08:35:37;101688.00;;;9.68;49.07
13705;BME280;6924;52.122;9.952;2023-04-19T08:38:05;101680.34;;;9.84;48.46
13705;BME280;6924;52.122;9.952;2023-04-19T08:40:31;101679.50;;;9.73;47.27
13705;BME280;6924;52.122;9.952;2023-04-19T08:42:58;101680.94;;;9.81;48.87
13705;BME280;6924;52.122;9.952;2023-04-19T08:45:26;101677.81;;;9.93;48.40
13705;BME280;6924;52.122;9.952;2023-04-19T08:47:57;101681.47;;;10.19;48.21
13705;BME280;6924;52.122;9.952;2023-04-19T08:50:24;101683.72;;;10.17;46.89
13705;BME280;6924;52.122;9.952;2023-04-19T08:52:51;101676.66;;;10.14;46.38
13705;BME280;6924;52.122;9.952;2023-04-19T08:55:18;101672.41;;;10.22;46.93
13705;BME280;6924;52.122;9.952;2023-04-19T08:57:44;101667.59;;;10.33;45.21
13705;BME280;6924;52.122;9.952;2023-04-19T09:00:12;101668.44;;;10.23;46.18
13705;BME280;6924;52.122;9.952;2023-04-19T09:02:46;101667.03;;;10.31;44.42
13705;BME280;6924;52.122;9.952;2023-04-19T09:05:14;101657.97;;;10.39;43.83
13705;BME280;6924;52.122;9.952;2023-04-19T09:07:42;101663.06;;;10.47;43.43
13705;BME280;6924;52.122;9.952;2023-04-19T09:10:10;101650.03;;;10.46;42.84
13705;BME280;6924;52.122;9.952;2023-04-19T09:12:37;101653.09;;;10.60;43.54
13705;BME280;6924;52.122;9.952;2023-04-19T09:15:05;101643.97;;;10.79;43.46
13705;BME280;6924;52.122;9.952;2023-04-19T09:17:33;101643.59;;;10.95;43.59
13705;BME280;6924;52.122;9.952;2023-04-19T09:20:00;101629.84;;;11.23;44.03
13705;BME280;6924;52.122;9.952;2023-04-19T09:22:30;101629.66;;;11.49;41.54
13705;BME280;6924;52.122;9.952;2023-04-19T09:24:57;101634.69;;;11.57;41.77
13705;BME280;6924;52.122;9.952;2023-04-19T09:27:26;101617.34;;;11.64;40.44
13705;BME280;6924;52.122;9.952;2023-04-19T09:29:53;101621.69;;;11.85;41.06
13705;BME280;6924;52.122;9.952;2023-04-19T09:32:20;101608.34;;;11.86;39.99
13705;BME280;6924;52.122;9.952;2023-04-19T09:34:52;101607.75;;;11.94;38.22
13705;BME280;6924;52.122;9.952;2023-04-19T09:37:19;101604.00;;;11.98;40.19
13705;BME280;6924;52.122;9.952;2023-04-19T09:39:48;101609.09;;;12.26;39.47
13705;BME280;6924;52.122;9.952;2023-04-19T09:42:14;101586.19;;;12.46;37.54
13705;BME280;6924;52.122;9.952;2023-04-19T09:44:41;101600.91;;;12.24;37.32
13705;BME280;6924;52.122;9.952;2023-04-19T09:47:21;101583.91;;;12.24;38.02
13705;BME280;6924;52.122;9.952;2023-04-19T09:50:03;101599.81;;;12.44;36.87
13705;BME280;6924;52.122;9.952;2023-04-19T09:52:31;101577.19;;;12.15;33.45
13705;BME280;6924;52.122;9.952;2023-04-19T09:54:59;101596.00;;;12.06;33.42
13705;BME280;6924;52.122;9.952;2023-04-19T09:57:26;101583.63;;;12.20;33.21
13705;BME280;6924;52.122;9.952;2023-04-19T09:59:52;101585.75;;;12.10;32.43
13705;BME280;6924;52.122;9.952;2023-04-19T10:02:19;101584.81;;;11.90;33.02
13705;BME280;6924;52.122;9.952;2023-04-19T10:04:46;101571.84;;;11.79;33.06
13705;BME280;6924;52.122;9.952;2023-04-19T10:07:12;101578.03;;;11.86;34.48
13705;BME280;6924;52.122;9.952;2023-04-19T10:09:39;101573.91;;;12.03;33.63
13705;BME280;6924;52.122;9.952;2023-04-19T10:12:07;101557.03;;;12.16;34.58
13705;BME280;6924;52.122;9.952;2023-04-19T10:14:34;101564.22;;;12.33;34.60
13705;BME280;6924;52.122;9.952;2023-04-19T10:17:01;101556.72;;;12.42;34.15
13705;BME280;6924;52.122;9.952;2023-04-19T10:19:27;101557.22;;;12.68;35.20
13705;BME280;6924;52.122;9.952;2023-04-19T10:21:55;101545.56;;;12.89;33.87
13705;BME280;6924;52.122;9.952;2023-04-19T10:24:22;101550.63;;;12.73;33.51
13705;BME280;6924;52.122;9.952;2023-04-19T10:27:08;101543.88;;;13.07;34.42
13705;BME280;6924;52.122;9.952;2023-04-19T10:29:55;101539.22;;;13.49;35.09
13705;BME280;6924;52.122;9.952;2023-04-19T10:32:22;101521.78;;;13.03;32.48
13705;BME280;6924;52.122;9.952;2023-04-19T10:34:50;101527.44;;;12.85;32.61
13705;BME280;6924;52.122;9.952;2023-04-19T10:37:20;101516.16;;;12.60;33.96
13705;BME280;6924;52.122;9.952;2023-04-19T10:39:47;101517.50;;;12.68;34.24
13705;BME280;6924;52.122;9.952;2023-04-19T10:42:15;101512.34;;;12.89;34.37
13705;BME280;6924;52.122;9.952;2023-04-19T10:44:41;101493.97;;;13.38;34.99
13705;BME280;6924;52.122;9.952;2023-04-19T10:47:08;101490.97;;;13.62;33.54
13705;BME280;6924;52.122;9.952;2023-04-19T10:49:43;101498.38;;;13.91;33.55
13705;BME280;6924;52.122;9.952;2023-04-19T10:52:25;101482.44;;;13.90;32.93
13705;BME280;6924;52.122;9.952;2023-04-19T10:54:54;101479.50;;;14.23;32.94
13705;BME280;6924;52.122;9.952;2023-04-19T10:57:22;101467.03;;;14.33;34.69
13705;BME280;6924;52.122;9.952;2023-04-19T11:00:17;101461.19;;;14.79;34.26
13705;BME280;6924;52.122;9.952;2023-04-19T11:02:43;101455.41;;;14.57;32.61
13705;BME280;6924;52.122;9.952;2023-04-19T11:05:10;101451.66;;;14.34;31.26
13705;BME280;6924;52.122;9.952;2023-04-19T11:07:39;101440.09;;;13.89;30.45
13705;BME280;6924;52.122;9.952;2023-04-19T11:10:07;101440.13;;;14.02;29.81
13705;BME280;6924;52.122;9.952;2023-04-19T11:12:35;101442.25;;;14.47;34.02
13705;BME280;6924;52.122;9.952;2023-04-19T11:15:02;101441.22;;;14.15;28.46
13705;BME280;6924;52.122;9.952;2023-04-19T11:17:30;101436.75;;;14.00;28.93
13705;BME280;6924;52.122;9.952;2023-04-19T11:19:59;101429.72;;;14.34;30.98
13705;BME280;6924;52.122;9.952;2023-04-19T11:22:29;101421.13;;;14.12;29.28
13705;BME280;6924;52.122;9.952;2023-04-19T11:24:56;101407.00;;;14.20;29.11
13705;BME280;6924;52.122;9.952;2023-04-19T11:27:22;101409.38;;;14.41;30.84
13705;BME280;6924;52.122;9.952;2023-04-19T11:29:51;101395.13;;;14.55;29.94
13705;BME280;6924;52.122;9.952;2023-04-19T11:32:20;101401.22;;;14.62;29.02
13705;BME280;6924;52.122;9.952;2023-04-19T11:34:46;101389.00;;;14.47;29.20
13705;BME280;6924;52.122;9.952;2023-04-19T11:37:12;101398.22;;;14.31;29.36
13705;BME280;6924;52.122;9.952;2023-04-19T11:39:45;101395.84;;;14.60;29.67
13705;BME280;6924;52.122;9.952;2023-04-19T11:42:18;101402.59;;;14.51;28.59
13705;BME280;6924;52.122;9.952;2023-04-19T11:44:50;101395.94;;;14.19;27.35
13705;BME280;6924;52.122;9.952;2023-04-19T11:47:18;101396.31;;;13.90;27.49
13705;BME280;6924;52.122;9.952;2023-04-19T11:49:45;101397.63;;;14.06;28.67
13705;BME280;6924;52.122;9.952;2023-04-19T11:52:21;101397.97;;;14.04;28.15
13705;BME280;6924;52.122;9.952;2023-04-19T11:54:48;101382.78;;;14.09;28.59
13705;BME280;6924;52.122;9.952;2023-04-19T11:57:26;101407.88;;;13.79;28.58
13705;BME280;6924;52.122;9.952;2023-04-19T12:00:04;101402.63;;;13.59;29.02
13705;BME280;6924;52.122;9.952;2023-04-19T12:02:36;101392.38;;;13.58;29.54
13705;BME280;6924;52.122;9.952;2023-04-19T12:05:07;101380.72;;;13.73;30.53
13705;BME280;6924;52.122;9.952;2023-04-19T12:07:34;101372.50;;;13.72;29.02
13705;BME280;6924;52.122;9.952;2023-04-19T12:10:07;101381.97;;;13.53;28.35
13705;BME280;6924;52.122;9.952;2023-04-19T12:12:35;101382.38;;;13.47;27.92
13705;BME280;6924;52.122;9.952;2023-04-19T12:15:03;101382.34;;;13.19;29.70
13705;BME280;6924;52.122;9.952;2023-04-19T12:17:30;101388.44;;;13.12;30.15
13705;BME280;6924;52.122;9.952;2023-04-19T12:19:56;101372.53;;;13.11;29.62
13705;BME280;6924;52.122;9.952;2023-04-19T12:22:23;101369.28;;;13.18;28.78
13705;BME280;6924;52.122;9.952;2023-04-19T12:24:50;101359.25;;;13.07;28.26
13705;BME280;6924;52.122;9.952;2023-04-19T12:27:17;101357.13;;;12.98;28.26
13705;BME280;6924;52.122;9.952;2023-04-19T12:29:44;101367.25;;;13.05;29.04
13705;BME280;6924;52.122;9.952;2023-04-19T12:32:12;101360.97;;;13.21;29.33
13705;BME280;6924;52.122;9.952;2023-04-19T12:34:39;101346.66;;;13.27;29.20
13705;BME280;6924;52.122;9.952;2023-04-19T12:37:06;101371.50;;;13.21;28.69
13705;BME280;6924;52.122;9.952;2023-04-19T12:39:33;101366.41;;;13.04;28.68
13705;BME280;6924;52.122;9.952;2023-04-19T12:41:59;101351.16;;;13.14;29.89
13705;BME280;6924;52.122;9.952;2023-04-19T12:44:26;101349.38;;;13.04;30.16
13705;BME280;6924;52.122;9.952;2023-04-19T12:46:52;101356.84;;;13.14;30.49
13705;BME280;6924;52.122;9.952;2023-04-19T12:49:22;101352.16;;;13.23;31.39
13705;BME280;6924;52.122;9.952;2023-04-19T12:51:49;101350.34;;;13.13;30.34
13705;BME280;6924;52.122;9.952;2023-04-19T12:54:15;101338.97;;;12.99;30.25
13705;BME280;6924;52.122;9.952;2023-04-19T12:56:42;101346.44;;;13.09;31.89
13705;BME280;6924;52.122;9.952;2023-04-19T12:59:08;101339.09;;;13.08;30.63
13705;BME280;6924;52.122;9.952;2023-04-19T13:01:35;101337.25;;;12.98;31.69
13705;BME280;6924;52.122;9.952;2023-04-19T13:04:02;101337.47;;;13.02;31.18
13705;BME280;6924;52.122;9.952;2023-04-19T13:06:29;101328.53;;;12.95;30.02
13705;BME280;6924;52.122;9.952;2023-04-19T13:08:56;101339.19;;;13.03;31.75